Time;durP1;ratioP1;P1;durP2;ratioP2;P2;SDS_P1;SDS_P2;PMS_P1;PMS_P2;Temp;Humidity;BMP_temperature;BMP_pressure;BME280_temperature;BME280_humidity;BME280_pressure;Samples;Min_cycle;Max_cycle;Signal;HPM_P1;HPM_P2
2022/12/13 00:02:26;;;;;;;23.40;14.50;;;;;;;-4.79;100.00;150153.34;5049096;28;20472;-74
2022/12/13 00:05:13;;;;;;;21.73;14.13;;;;;;;-4.78;100.00;150155.88;5044955;28;20579;-74
2022/12/13 00:08:00;;;;;;;19.60;13.70;;;;;;;-4.78;100.00;150157.16;5052043;28;20449;-74
2022/12/13 00:10:46;;;;;;;21.80;13.27;;;;;;;-4.81;100.00;150148.19;5052880;28;20462;-74
2022/12/13 00:13:31;;;;;;;22.07;13.80;;;;;;;-4.92;100.00;150122.66;5048752;28;20413;-74
2022/12/13 00:16:18;;;;;;;29.17;15.93;;;;;;;-4.80;100.00;150150.78;5049079;28;20774;-74
2022/12/13 00:19:03;;;;;;;21.30;14.20;;;;;;;-4.87;100.00;150132.91;5051001;28;20425;-74
2022/12/13 00:21:50;;;;;;;24.60;13.57;;;;;;;-4.93;100.00;150120.13;5037820;28;20461;-73
2022/12/13 00:24:35;;;;;;;22.70;15.47;;;;;;;-4.95;100.00;150113.75;5045452;28;20447;-74
2022/12/13 00:27:21;;;;;;;19.83;14.17;;;;;;;-4.94;100.00;150117.56;5039727;28;20417;-74
2022/12/13 00:30:07;;;;;;;22.10;14.90;;;;;;;-4.92;100.00;150121.38;5032423;28;20433;-74
2022/12/13 00:32:53;;;;;;;20.47;13.37;;;;;;;-4.92;100.00;150122.66;5051056;28;20416;-73
2022/12/13 00:35:40;;;;;;;25.30;15.30;;;;;;;-4.91;100.00;150123.94;5047667;28;20462;-74
2022/12/13 00:38:27;;;;;;;23.63;14.43;;;;;;;-4.89;100.00;150127.75;5047318;28;20566;-72
2022/12/13 00:41:13;;;;;;;28.47;15.13;;;;;;;-4.98;100.00;150106.06;5051484;28;20461;-74
2022/12/13 00:43:59;;;;;;;27.37;15.30;;;;;;;-5.10;100.00;150076.69;5045380;28;20845;-74
2022/12/13 00:46:44;;;;;;;21.60;15.10;;;;;;;-4.94;100.00;150117.56;5047318;28;20462;-74
2022/12/13 00:49:30;;;;;;;23.17;14.60;;;;;;;-4.95;100.00;150113.75;5031932;28;20515;-73
2022/12/13 00:52:15;;;;;;;24.47;15.87;;;;;;;-5.01;100.00;150099.69;5043328;28;20437;-74
2022/12/13 00:55:02;;;;;;;27.33;15.93;;;;;;;-5.00;100.00;150102.22;5042111;28;20413;-73
2022/12/13 00:57:47;;;;;;;23.57;14.03;;;;;;;-5.09;100.00;150079.25;5032145;28;20540;-74
2022/12/13 01:00:32;;;;;;;21.60;13.13;;;;;;;-5.07;100.00;150083.06;5033739;28;20446;-74
2022/12/13 01:03:24;;;;;;;25.70;13.97;;;;;;;-5.14;100.00;150065.19;5047543;28;20438;-74
2022/12/13 01:06:11;;;;;;;23.33;14.87;;;;;;;-5.16;100.00;150061.34;5036710;28;20444;-73
2022/12/13 01:08:56;;;;;;;22.30;13.90;;;;;;;-5.14;100.00;150065.19;5037149;28;20444;-73
2022/12/13 01:11:43;;;;;;;18.50;13.67;;;;;;;-5.18;100.00;150056.25;5033351;28;20580;-74
2022/12/13 01:14:29;;;;;;;18.83;12.60;;;;;;;-5.16;100.00;150061.34;5045637;28;20906;-73
2022/12/13 01:17:14;;;;;;;22.17;13.87;;;;;;;-5.07;100.00;150083.06;5032508;28;20507;-73
2022/12/13 01:19:59;;;;;;;21.50;12.80;;;;;;;-5.17;100.00;150057.53;5039326;28;20770;-74
2022/12/13 01:22:46;;;;;;;21.40;13.60;;;;;;;-5.20;100.00;150049.88;5033629;28;20915;-74
2022/12/13 01:25:32;;;;;;;18.47;13.27;;;;;;;-5.20;100.00;150049.88;5051033;28;20483;-74
2022/12/13 01:28:18;;;;;;;23.83;15.50;;;;;;;-5.24;100.00;150040.91;5057310;28;20420;-74
2022/12/13 01:31:07;;;;;;;20.33;13.60;;;;;;;-5.24;100.00;150039.66;5037053;28;20442;-74
2022/12/13 01:33:52;;;;;;;22.60;13.73;;;;;;;-5.23;100.00;150042.19;5032541;28;21044;-74
2022/12/13 01:36:38;;;;;;;22.90;13.90;;;;;;;-5.22;100.00;150044.75;5035870;28;20447;-74
2022/12/13 01:39:24;;;;;;;23.97;15.00;;;;;;;-5.28;100.00;150030.72;5042471;28;20444;-74
2022/12/13 01:42:11;;;;;;;24.90;14.60;;;;;;;-5.25;100.00;150038.38;5050977;28;20424;-74
2022/12/13 01:45:06;;;;;;;19.23;12.60;;;;;;;-5.32;100.00;150020.47;5050295;28;20468;-74
2022/12/13 01:47:54;;;;;;;24.57;14.70;;;;;;;-5.38;100.00;150003.91;5031714;28;20443;-74
2022/12/13 01:50:42;;;;;;;20.87;14.87;;;;;;;-5.40;100.00;149998.81;5032395;28;20541;-74
2022/12/13 01:53:30;;;;;;;22.57;14.83;;;;;;;-5.36;100.00;150009.00;5045274;28;20426;-74
2022/12/13 01:56:18;;;;;;;20.97;12.53;;;;;;;-5.39;100.00;150001.34;5034928;28;20516;-74
2022/12/13 01:59:05;;;;;;;19.90;14.40;;;;;;;-5.39;100.00;150002.63;5038984;28;20446;-74
2022/12/13 02:01:52;;;;;;;19.87;13.00;;;;;;;-5.39;100.00;150002.63;5030092;28;20438;-74
2022/12/13 02:04:44;;;;;;;22.67;13.80;;;;;;;-5.37;100.00;150007.72;5042302;28;20432;-74
2022/12/13 02:07:31;;;;;;;23.07;13.83;;;;;;;-5.37;100.00;150006.44;5043079;28;20409;-73
2022/12/13 02:10:17;;;;;;;24.27;15.17;;;;;;;-5.30;100.00;150025.63;5038977;28;20417;-74
2022/12/13 02:13:03;;;;;;;22.17;13.00;;;;;;;-5.31;100.00;150023.03;5036969;28;20457;-73
2022/12/13 02:15:55;;;;;;;23.97;14.70;;;;;;;-5.33;100.00;150017.94;5058732;28;20800;-74
2022/12/13 02:18:57;;;;;;;20.60;13.10;;;;;;;-5.26;100.00;150034.53;5031229;28;20445;-74
2022/12/13 02:21:50;;;;;;;17.40;13.60;;;;;;;-5.29;100.00;150026.84;5037058;28;20677;-74
2022/12/13 02:24:52;;;;;;;19.00;13.00;;;;;;;-5.27;100.00;150032.00;5030906;28;20484;-73
2022/12/13 02:28:03;;;;;;;19.93;12.47;;;;;;;-5.28;100.00;150029.44;5030833;28;20542;-74
2022/12/13 02:30:52;;;;;;;18.93;13.30;;;;;;;-5.31;100.00;150023.03;5035410;28;21039;-74
2022/12/13 02:33:48;;;;;;;19.30;12.20;;;;;;;-5.30;100.00;150024.34;5035461;28;20842;-74
2022/12/13 02:36:37;;;;;;;17.83;12.90;;;;;;;-5.30;100.00;150025.63;5050900;28;20582;-74
2022/12/13 02:39:27;;;;;;;20.17;11.73;;;;;;;-5.29;100.00;150028.13;5037775;28;20418;-75
2022/12/13 02:42:17;;;;;;;21.50;13.53;;;;;;;-5.31;100.00;150023.03;5044803;28;20430;-74
2022/12/13 02:45:07;;;;;;;17.40;11.27;;;;;;;-5.30;100.00;150025.63;5048370;28;20448;-74
2022/12/13 02:47:56;;;;;;;18.83;11.50;;;;;;;-5.32;100.00;150020.47;5049590;28;20432;-73
2022/12/13 02:50:42;;;;;;;21.40;12.30;;;;;;;-5.35;100.00;150012.84;5048908;28;20555;-73
2022/12/13 02:53:27;;;;;;;22.90;14.50;;;;;;;-5.32;100.00;150019.22;5050431;28;20421;-74
2022/12/13 02:56:13;;;;;;;24.27;14.10;;;;;;;-5.36;100.00;150010.28;5042078;28;20455;-74
2022/12/13 02:58:59;;;;;;;20.60;12.77;;;;;;;-5.33;100.00;150016.66;5040806;28;20471;-74
2022/12/13 03:01:49;;;;;;;19.17;12.10;;;;;;;-5.34;100.00;150015.38;5038147;28;20477;-73
2022/12/13 03:06:28;;;;;;;17.80;11.03;;;;;;;-5.35;99.76;150012.84;5039389;28;20411;-74
2022/12/13 03:08:00;;;;;;;17.17;11.40;;;;;;;-5.32;100.00;150020.47;5045223;28;20455;-74
2022/12/13 03:11:02;;;;;;;16.53;9.80;;;;;;;-5.34;99.07;150014.09;5049389;28;20444;-74
2022/12/13 03:13:50;;;;;;;19.23;11.03;;;;;;;-5.36;99.01;150009.00;5039559;28;20442;-74
2022/12/13 03:16:38;;;;;;;15.47;10.83;;;;;;;-5.35;99.01;150012.84;5047017;28;20500;-73
2022/12/13 03:19:23;;;;;;;15.43;9.60;;;;;;;-5.30;98.33;150025.63;5052552;28;20479;-73
2022/12/13 03:22:10;;;;;;;17.10;11.33;;;;;;;-5.29;98.57;150026.84;5052743;28;20420;-73
2022/12/13 03:24:55;;;;;;;17.30;10.47;;;;;;;-5.28;98.18;150030.72;5045367;28;20790;-73
2022/12/13 03:27:41;;;;;;;21.70;11.17;;;;;;;-5.30;98.54;150024.34;5049891;28;20467;-73
2022/12/13 03:30:26;;;;;;;21.20;11.67;;;;;;;-5.33;98.73;150017.94;5045579;28;20488;-73
2022/12/13 03:33:12;;;;;;;16.63;11.00;;;;;;;-5.29;98.38;150028.13;5052984;28;20496;-73
2022/12/13 03:35:58;;;;;;;14.77;11.00;;;;;;;-5.34;97.97;150015.38;5037527;28;20455;-73
2022/12/13 03:38:45;;;;;;;17.50;11.50;;;;;;;-5.32;98.35;150020.47;5047583;28;20522;-73
2022/12/13 03:41:31;;;;;;;17.90;11.17;;;;;;;-5.29;97.79;150028.13;5033375;28;20436;-74
2022/12/13 03:44:17;;;;;;;15.73;10.40;;;;;;;-5.33;97.86;150016.66;5034599;28;20446;-73
2022/12/13 03:47:03;;;;;;;14.73;10.00;;;;;;;-5.39;97.86;150002.63;5033690;28;20972;-74
2022/12/13 03:49:48;;;;;;;19.50;10.97;;;;;;;-5.42;97.61;149994.94;5042121;28;20445;-74
2022/12/13 03:52:34;;;;;;;14.80;10.20;;;;;;;-5.44;97.96;149989.84;5048520;28;20536;-74
2022/12/13 03:55:20;;;;;;;13.60;8.80;;;;;;;-5.37;97.24;150007.72;5049139;28;20430;-74
2022/12/13 03:58:06;;;;;;;18.13;9.17;;;;;;;-5.36;96.36;150010.28;5042798;28;20434;-74
2022/12/13 04:00:51;;;;;;;14.40;10.60;;;;;;;-5.29;95.94;150026.84;5046647;28;20492;-74
2022/12/13 04:03:37;;;;;;;14.40;8.73;;;;;;;-5.38;96.10;150003.91;5050875;28;20455;-74
2022/12/13 04:06:23;;;;;;;15.27;8.53;;;;;;;-5.45;96.24;149987.28;5034656;28;20422;-74
2022/12/13 04:09:08;;;;;;;11.93;8.77;;;;;;;-5.45;96.49;149987.28;5034065;28;20879;-74
2022/12/13 04:14:58;;;;;;;13.53;8.20;;;;;;;-5.45;95.96;149987.28;5038621;28;20447;-74
2022/12/13 04:17:43;;;;;;;12.13;8.47;;;;;;;-5.41;95.77;149996.22;5049212;28;20413;-74
2022/12/13 04:20:28;;;;;;;16.30;9.80;;;;;;;-5.31;95.11;150023.03;5045848;28;20424;-74
2022/12/13 04:23:14;;;;;;;16.80;9.87;;;;;;;-5.36;95.52;150009.00;5044728;28;20470;-74
2022/12/13 04:26:00;;;;;;;13.30;9.20;;;;;;;-5.46;95.56;149983.47;5046802;28;20478;-74
2022/12/13 04:28:47;;;;;;;17.30;10.50;;;;;;;-5.43;96.54;149992.44;5047908;28;20527;-74
2022/12/13 04:31:33;;;;;;;18.53;10.67;;;;;;;-5.38;96.15;150003.91;5044393;28;20764;-74
2022/12/13 04:34:18;;;;;;;17.37;9.43;;;;;;;-5.49;96.60;149977.09;5053296;28;20420;-74
2022/12/13 04:37:03;;;;;;;11.53;8.67;;;;;;;-5.48;96.10;149979.63;5045391;28;20582;-74
2022/12/13 04:39:48;;;;;;;15.90;10.40;;;;;;;-5.47;95.99;149980.91;5048067;28;20860;-74
2022/12/13 04:42:34;;;;;;;16.63;10.10;;;;;;;-5.48;96.34;149979.63;5041448;28;20434;-74
2022/12/13 04:45:21;;;;;;;14.43;10.03;;;;;;;-5.57;96.37;149957.94;5048779;28;20480;-74
2022/12/13 04:48:07;;;;;;;13.77;8.27;;;;;;;-5.60;96.18;149949.00;5047309;28;20441;-74
2022/12/13 04:50:52;;;;;;;13.90;9.20;;;;;;;-5.63;96.55;149941.31;5053235;28;20454;-74
2022/12/13 04:53:38;;;;;;;13.17;8.23;;;;;;;-5.53;95.77;149968.13;5049914;28;20455;-74
2022/12/13 04:56:24;;;;;;;14.17;9.40;;;;;;;-5.57;95.69;149957.94;5038121;28;20996;-73
2022/12/13 04:59:09;;;;;;;12.57;8.10;;;;;;;-5.52;95.75;149969.41;5034608;28;20519;-73
2022/12/13 05:01:55;;;;;;;10.17;7.37;;;;;;;-5.57;95.67;149956.66;5048254;28;20413;-74
2022/12/13 05:04:41;;;;;;;13.00;8.23;;;;;;;-5.57;96.10;149956.66;5035633;28;20417;-74
2022/12/13 05:07:27;;;;;;;14.53;8.47;;;;;;;-5.52;95.37;149969.41;5032388;28;20413;-74
2022/12/13 05:10:12;;;;;;;13.47;8.30;;;;;;;-5.55;96.33;149961.75;5036270;28;21041;-73
2022/12/13 05:12:58;;;;;;;9.27;7.03;;;;;;;-5.61;95.79;149946.41;5034393;28;20512;-74
2022/12/13 05:15:43;;;;;;;17.20;8.47;;;;;;;-5.57;95.79;149957.94;5040608;28;20454;-73
2022/12/13 05:18:30;;;;;;;12.53;8.87;;;;;;;-5.50;95.64;149973.22;5033465;28;20497;-73
2022/12/13 05:21:16;;;;;;;12.10;8.53;;;;;;;-5.58;95.99;149954.09;5046222;28;20919;-73
2022/12/13 05:24:01;;;;;;;15.07;8.70;;;;;;;-5.59;95.82;149951.56;5040130;28;20457;-73
2022/12/13 05:26:47;;;;;;;13.10;8.80;;;;;;;-5.59;95.69;149952.81;5041141;28;20431;-73
2022/12/13 05:29:32;;;;;;;14.77;8.93;;;;;;;-5.64;96.26;149938.81;5041676;28;20808;-73
2022/12/13 05:32:17;;;;;;;15.03;8.43;;;;;;;-5.64;95.93;149938.81;5043251;28;20434;-73
2022/12/13 05:35:05;;;;;;;11.13;8.43;;;;;;;-5.66;95.87;149934.94;5038362;28;20428;-73
2022/12/13 05:37:51;;;;;;;12.27;8.27;;;;;;;-5.67;95.70;149931.13;5032764;28;20501;-73
2022/12/13 05:40:36;;;;;;;16.17;9.20;;;;;;;-5.69;95.88;149927.28;5043116;28;20417;-73
2022/12/13 05:43:22;;;;;;;12.13;7.67;;;;;;;-5.65;95.86;149936.22;5041748;28;21100;-73
2022/12/13 05:46:08;;;;;;;13.70;8.93;;;;;;;-5.62;95.84;149943.91;5041899;28;20440;-73
2022/12/13 05:48:53;;;;;;;14.57;8.80;;;;;;;-5.66;95.72;149934.94;5044927;28;20565;-73
2022/12/13 05:51:40;;;;;;;18.83;8.97;;;;;;;-5.67;95.84;149931.13;5042364;28;20457;-73
2022/12/13 05:54:25;;;;;;;15.53;9.50;;;;;;;-5.63;95.53;149941.31;5061559;28;20463;-73
2022/12/13 05:57:10;;;;;;;14.47;8.93;;;;;;;-5.69;95.24;149926.00;5051785;28;20392;-73
2022/12/13 05:59:56;;;;;;;15.17;9.60;;;;;;;-5.66;95.48;149933.66;5055078;28;20462;-73
2022/12/13 06:02:43;;;;;;;14.03;7.70;;;;;;;-5.74;95.34;149913.22;5061895;28;20464;-74
2022/12/13 06:05:28;;;;;;;10.00;7.23;;;;;;;-5.76;95.64;149909.44;5056042;28;20457;-73
2022/12/13 06:08:15;;;;;;;15.47;9.57;;;;;;;-5.75;95.28;149912.00;5066437;28;21307;-72
2022/12/13 06:11:02;;;;;;;15.70;9.33;;;;;;;-5.58;94.73;149955.38;5062633;28;20429;-74
2022/12/13 06:13:50;;;;;;;15.93;9.33;;;;;;;-5.55;94.22;149963.03;5072263;28;20511;-73
2022/12/13 06:16:35;;;;;;;10.80;8.47;;;;;;;-5.60;94.03;149949.00;5060168;28;20539;-73
2022/12/13 06:19:21;;;;;;;13.60;8.53;;;;;;;-5.71;94.54;149922.19;5056092;28;20496;-73
2022/12/13 06:22:06;;;;;;;16.33;9.57;;;;;;;-5.65;95.26;149936.22;5058980;28;20533;-72
2022/12/13 06:24:53;;;;;;;16.57;10.80;;;;;;;-5.57;94.13;149956.66;5051993;28;20977;-73
2022/12/13 06:27:39;;;;;;;11.17;7.77;;;;;;;-5.64;94.19;149940.03;5051153;28;20936;-75
2022/12/13 06:30:25;;;;;;;13.87;8.70;;;;;;;-5.67;94.04;149931.13;5063970;28;20780;-73
2022/12/13 06:33:10;;;;;;;10.10;7.07;;;;;;;-5.74;94.03;149913.22;5053858;28;20413;-73
2022/12/13 06:35:57;;;;;;;14.33;9.70;;;;;;;-5.79;94.27;149900.47;5061351;28;20457;-73
2022/12/13 06:38:42;;;;;;;14.17;9.23;;;;;;;-5.79;94.10;149900.47;5057900;28;20409;-73
2022/12/13 06:41:29;;;;;;;13.50;8.30;;;;;;;-5.76;94.21;149908.16;5068071;28;20902;-73
2022/12/13 06:44:14;;;;;;;13.03;8.93;;;;;;;-5.76;94.09;149908.16;5070113;28;20487;-73
2022/12/13 06:47:00;;;;;;;15.13;9.00;;;;;;;-5.80;94.25;149897.97;5064150;28;20835;-73
2022/12/13 06:49:45;;;;;;;11.17;7.90;;;;;;;-5.75;93.59;149910.72;5048904;28;20432;-73
2022/12/13 06:52:31;;;;;;;11.73;7.03;;;;;;;-5.84;94.01;149889.00;5056197;28;20842;-73
2022/12/13 06:55:16;;;;;;;9.83;6.93;;;;;;;-5.85;93.91;149885.25;5050770;28;20518;-73
2022/12/13 06:58:03;;;;;;;13.87;7.90;;;;;;;-5.86;94.08;149882.69;5055772;28;20404;-74
2022/12/13 07:00:48;;;;;;;10.70;8.10;;;;;;;-5.84;93.82;149889.00;5060387;28;20655;-73
2022/12/13 07:03:35;;;;;;;12.23;8.53;;;;;;;-5.74;93.34;149914.53;5059185;28;20432;-74
2022/12/13 07:06:22;;;;;;;12.53;8.30;;;;;;;-5.80;93.36;149897.97;5050767;28;20471;-73
2022/12/13 07:09:08;;;;;;;13.20;8.37;;;;;;;-5.76;93.36;149908.16;5049309;28;20936;-73
2022/12/13 07:11:53;;;;;;;14.40;8.30;;;;;;;-5.80;92.67;149899.19;5048205;28;20809;-76
2022/12/13 07:14:40;;;;;;;13.33;7.90;;;;;;;-5.83;93.36;149890.28;5053119;28;20446;-73
2022/12/13 07:17:26;;;;;;;13.87;9.40;;;;;;;-5.79;93.16;149900.47;5062934;28;20467;-73
2022/12/13 07:20:13;;;;;;;12.00;8.20;;;;;;;-5.79;92.81;149900.47;5061393;28;20436;-73
2022/12/13 07:22:58;;;;;;;14.83;9.60;;;;;;;-5.70;92.76;149924.75;5076155;28;20995;-73
2022/12/13 07:25:51;;;;;;;15.53;9.70;;;;;;;-5.66;92.37;149933.66;5055606;28;20495;-73
2022/12/13 07:28:38;;;;;;;11.10;8.30;;;;;;;-5.65;92.37;149936.22;5054795;28;20446;-73
2022/12/13 07:31:25;;;;;;;14.50;8.07;;;;;;;-5.67;92.82;149932.44;5056910;28;20524;-73
2022/12/13 07:34:11;;;;;;;16.93;9.87;;;;;;;-5.66;92.77;149934.94;5064139;28;20916;-73
2022/12/13 07:36:56;;;;;;;13.20;8.53;;;;;;;-5.66;92.54;149934.94;5063060;28;20400;-73
2022/12/13 07:39:42;;;;;;;12.93;8.93;;;;;;;-5.66;92.97;149933.66;5067917;28;20835;-73
2022/12/13 07:42:28;;;;;;;17.60;10.30;;;;;;;-5.55;92.49;149963.03;5066510;28;20419;-73
2022/12/13 07:45:13;;;;;;;13.50;9.60;;;;;;;-5.60;92.67;149950.28;5057266;28;20607;-73
2022/12/13 07:48:04;;;;;;;11.50;8.20;;;;;;;-5.63;92.72;149941.31;5059163;28;20413;-73
2022/12/13 07:50:49;;;;;;;14.53;9.53;;;;;;;-5.59;92.73;149952.81;5068258;28;20507;-73
2022/12/13 07:53:34;;;;;;;11.60;9.10;;;;;;;-5.52;92.79;149969.41;5058766;28;20944;-73
2022/12/13 07:56:20;;;;;;;16.20;9.20;;;;;;;-5.54;92.07;149964.31;5063699;28;20981;-74
2022/12/13 07:59:05;;;;;;;10.77;8.10;;;;;;;-5.51;92.42;149970.72;5063107;28;20416;-72
2022/12/13 08:01:51;;;;;;;18.13;10.53;;;;;;;-5.48;92.16;149978.38;5059091;28;20698;-72
2022/12/13 08:04:38;;;;;;;16.13;9.23;;;;;;;-5.50;91.90;149974.53;5071672;28;20473;-72
2022/12/13 08:07:23;;;;;;;14.93;9.17;;;;;;;-5.47;92.02;149982.19;5071647;28;20449;-72
2022/12/13 08:10:09;;;;;;;12.30;8.30;;;;;;;-5.41;91.76;149996.22;5060263;28;20457;-72
2022/12/13 08:12:54;;;;;;;12.57;8.63;;;;;;;-5.35;92.09;150012.84;5068373;28;20450;-73
2022/12/13 08:15:39;;;;;;;14.97;8.30;;;;;;;-5.28;91.20;150030.72;5070268;28;20467;-73
2022/12/13 08:18:24;;;;;;;13.67;9.57;;;;;;;-5.25;90.99;150038.38;5058524;28;20859;-73
2022/12/13 08:21:11;;;;;;;14.00;9.00;;;;;;;-5.22;91.15;150044.75;5066027;28;20457;-72
2022/12/13 08:23:59;;;;;;;15.63;8.90;;;;;;;-5.25;91.18;150038.38;5069144;28;20971;-73
2022/12/13 08:26:45;;;;;;;14.17;8.50;;;;;;;-5.22;91.01;150044.75;5067885;28;20956;-73
2022/12/13 08:29:31;;;;;;;13.40;7.97;;;;;;;-5.17;91.13;150057.53;5070316;28;20421;-73
2022/12/13 08:32:16;;;;;;;15.70;9.50;;;;;;;-5.20;91.16;150051.16;5071881;28;20406;-73
2022/12/13 08:35:02;;;;;;;17.80;9.40;;;;;;;-5.18;90.67;150056.25;5068718;28;20449;-73
2022/12/13 08:37:48;;;;;;;15.50;9.33;;;;;;;-5.13;90.70;150069.00;5071458;28;20409;-73
2022/12/13 08:40:34;;;;;;;14.80;9.13;;;;;;;-5.07;90.76;150084.34;5071526;28;20433;-73
2022/12/13 08:43:19;;;;;;;10.97;8.43;;;;;;;-5.08;90.29;150081.78;5070174;28;20450;-73
2022/12/13 08:46:05;;;;;;;14.23;8.10;;;;;;;-5.02;89.76;150097.13;5067172;28;20473;-73
2022/12/13 08:48:53;;;;;;;13.97;8.77;;;;;;;-5.03;90.60;150093.31;5068983;28;20777;-73
2022/12/13 08:51:38;;;;;;;14.40;9.50;;;;;;;-5.06;90.93;150086.94;5070670;28;20448;-73
2022/12/13 08:54:25;;;;;;;14.63;9.10;;;;;;;-5.02;90.73;150097.13;5070382;28;20445;-73
2022/12/13 08:57:11;;;;;;;14.63;9.67;;;;;;;-4.97;91.12;150109.88;5069410;28;20380;-73
2022/12/13 08:59:57;;;;;;;16.23;10.50;;;;;;;-4.94;91.11;150117.56;5070961;28;20433;-73
2022/12/13 09:02:43;;;;;;;14.30;8.87;;;;;;;-4.85;90.25;150139.28;5069454;28;20453;-73
2022/12/13 09:05:28;;;;;;;13.90;9.47;;;;;;;-4.86;90.71;150135.44;5063268;28;20493;-73
2022/12/13 09:08:14;;;;;;;12.97;8.10;;;;;;;-4.80;90.03;150150.78;5063242;28;20417;-73
2022/12/13 09:11:01;;;;;;;11.77;7.43;;;;;;;-4.71;89.80;150175.03;5056376;28;20432;-72
2022/12/13 09:13:46;;;;;;;13.87;9.13;;;;;;;-4.66;88.39;150186.56;5051616;28;20438;-73
2022/12/13 09:16:35;;;;;;;14.20;9.03;;;;;;;-4.69;89.20;150178.88;5052336;28;20479;-73
2022/12/13 09:19:20;;;;;;;12.13;8.93;;;;;;;-4.72;88.82;150171.22;5051594;28;20759;-73
2022/12/13 09:22:06;;;;;;;15.00;8.13;;;;;;;-4.60;89.06;150203.16;5056166;28;20734;-73
2022/12/13 09:24:51;;;;;;;13.10;9.27;;;;;;;-4.54;88.70;150218.50;5052502;28;20554;-73
2022/12/13 09:27:38;;;;;;;14.77;9.20;;;;;;;-4.56;89.05;150213.41;5051607;28;20406;-73
2022/12/13 09:30:24;;;;;;;14.10;8.07;;;;;;;-4.48;87.67;150232.56;5056824;28;20458;-73
2022/12/13 09:33:09;;;;;;;15.63;8.73;;;;;;;-4.42;87.71;150249.13;5051729;28;20418;-73
2022/12/13 09:35:55;;;;;;;11.40;7.50;;;;;;;-4.46;88.05;150238.94;5065039;28;20509;-73
2022/12/13 09:38:40;;;;;;;12.60;9.53;;;;;;;-4.34;86.80;150268.31;5056364;28;20460;-73
2022/12/13 09:41:29;;;;;;;13.20;8.00;;;;;;;-4.25;86.89;150291.31;5052208;28;20773;-73
2022/12/13 09:44:20;;;;;;;11.00;6.53;;;;;;;-4.13;87.19;150322.00;5051559;28;20966;-73
2022/12/13 09:47:12;;;;;;;12.00;9.30;;;;;;;-4.17;85.78;150311.78;5067899;28;20425;-73
2022/12/13 09:50:00;;;;;;;12.43;8.13;;;;;;;-4.18;86.33;150309.22;5071392;28;20492;-73
2022/12/13 09:52:46;;;;;;;15.53;8.87;;;;;;;-4.14;87.05;150319.47;5071512;28;20492;-72
2022/12/13 09:55:34;;;;;;;15.70;8.47;;;;;;;-4.14;85.21;150319.47;5056043;28;20472;-73
2022/12/13 09:58:22;;;;;;;13.73;8.67;;;;;;;-4.02;85.11;150350.13;5070521;28;20434;-72
2022/12/13 10:01:11;;;;;;;14.20;9.10;;;;;;;-4.08;85.25;150333.53;5071677;28;20487;-72
2022/12/13 10:03:59;;;;;;;13.63;7.50;;;;;;;-3.98;85.59;150360.38;5071098;28;20448;-74
2022/12/13 10:06:44;;;;;;;17.13;7.30;;;;;;;-4.00;84.16;150355.28;5061550;28;20814;-74
2022/12/13 10:09:30;;;;;;;11.17;8.00;;;;;;;-3.94;84.30;150370.56;5051417;28;20456;-73
2022/12/13 10:12:16;;;;;;;13.37;7.10;;;;;;;-3.87;84.80;150388.50;5063035;28;20831;-73
2022/12/13 10:15:02;;;;;;;14.60;8.53;;;;;;;-3.85;84.93;150392.31;5058484;28;20437;-73
2022/12/13 10:17:50;;;;;;;11.53;7.00;;;;;;;-3.82;84.12;150401.28;5069315;28;20595;-73
2022/12/13 10:20:35;;;;;;;13.90;9.40;;;;;;;-3.75;84.73;150419.19;5062674;28;20450;-74
2022/12/13 10:23:20;;;;;;;13.90;8.60;;;;;;;-3.64;84.46;150444.75;5051498;28;20407;-73
2022/12/13 10:26:09;;;;;;;10.00;7.23;;;;;;;-3.66;84.03;150439.66;5065165;28;20450;-73
2022/12/13 10:29:02;;;;;;;11.30;7.07;;;;;;;-3.61;82.71;150453.72;5057836;28;20454;-73
2022/12/13 10:31:48;;;;;;;9.87;7.30;;;;;;;-3.64;82.93;150444.75;5051010;28;20410;-73
2022/12/13 10:34:37;;;;;;;9.50;6.23;;;;;;;-3.62;82.04;150451.13;5065467;28;20444;-74
2022/12/13 10:37:30;;;;;;;13.33;7.83;;;;;;;-3.61;82.67;150453.72;5065413;28;20519;-73
2022/12/13 10:40:32;;;;;;;10.43;7.77;;;;;;;-3.48;82.99;150486.97;5069910;28;20437;-74
2022/12/13 10:43:19;;;;;;;11.47;7.73;;;;;;;-3.47;80.54;150488.25;5059565;28;20453;-74
2022/12/13 10:46:04;;;;;;;11.80;7.50;;;;;;;-3.43;80.40;150499.75;5065937;28;20509;-73
2022/12/13 10:48:51;;;;;;;14.60;7.80;;;;;;;-3.44;80.36;150495.94;5070029;28;20413;-72
2022/12/13 10:51:39;;;;;;;8.83;6.93;;;;;;;-3.44;81.22;150495.94;5065472;28;20612;-74
2022/12/13 10:54:27;;;;;;;9.90;7.40;;;;;;;-3.40;80.59;150506.16;5058347;28;20449;-74
2022/12/13 10:57:13;;;;;;;10.47;6.90;;;;;;;-3.33;81.49;150524.03;5051397;28;20395;-74
2022/12/13 10:59:58;;;;;;;11.33;7.20;;;;;;;-3.27;80.74;150539.41;5057470;28;20453;-74
2022/12/13 11:02:54;;;;;;;9.70;5.90;;;;;;;-3.21;79.75;150556.06;5067563;28;20417;-74
2022/12/13 11:05:39;;;;;;;14.43;7.33;;;;;;;-3.20;79.23;150558.59;5074155;28;20476;-73
2022/12/13 11:08:29;;;;;;;11.77;8.10;;;;;;;-3.22;79.54;150552.19;5059054;28;20798;-73
2022/12/13 11:11:17;;;;;;;14.77;7.03;;;;;;;-3.12;78.42;150577.78;5071232;28;20917;-73
2022/12/13 11:14:02;;;;;;;8.80;6.90;;;;;;;-3.11;78.74;150580.34;5063762;28;20433;-72
2022/12/13 11:16:51;;;;;;;10.90;6.97;;;;;;;-3.04;78.29;150598.25;5054628;28;20614;-72
2022/12/13 11:19:39;;;;;;;12.23;6.33;;;;;;;-2.98;77.99;150613.63;5058924;28;20662;-72
2022/12/13 11:22:27;;;;;;;11.80;7.47;;;;;;;-2.93;77.34;150625.13;5054800;28;20836;-72
2022/12/13 11:25:20;;;;;;;10.17;6.93;;;;;;;-2.96;78.54;150618.72;5054262;28;20503;-72
2022/12/13 11:28:16;;;;;;;12.37;8.00;;;;;;;-2.94;76.98;150623.88;5064315;28;20560;-73
2022/12/13 11:31:11;;;;;;;11.67;6.27;;;;;;;-2.88;76.21;150637.91;5073931;28;20503;-72
2022/12/13 11:34:01;;;;;;;14.00;7.10;;;;;;;-2.85;76.16;150646.91;5074259;28;20445;-72
2022/12/13 11:36:51;;;;;;;10.00;6.87;;;;;;;-2.85;76.23;150646.91;5070285;28;20790;-72
2022/12/13 11:39:38;;;;;;;10.87;6.10;;;;;;;-2.83;76.66;150650.75;5053624;28;20403;-73
2022/12/13 11:42:28;;;;;;;7.10;5.20;;;;;;;-2.84;76.08;150649.47;5069764;28;20780;-72
2022/12/13 11:45:17;;;;;;;9.07;6.60;;;;;;;-2.75;76.20;150671.19;5054820;28;20481;-74
2022/12/13 11:48:06;;;;;;;7.67;3.23;;;;;;;-2.68;75.16;150689.16;5053569;28;20418;-74
2022/12/13 11:50:55;;;;;;;10.70;6.13;;;;;;;-2.77;74.47;150666.09;5053708;28;20507;-74
2022/12/13 11:53:48;;;;;;;8.30;4.87;;;;;;;-2.65;74.78;150698.06;5053450;28;20426;-74
2022/12/13 11:56:37;;;;;;;6.30;3.87;;;;;;;-2.59;74.83;150712.16;5057905;28;20525;-74
2022/12/13 11:59:32;;;;;;;14.33;6.73;;;;;;;-2.61;74.52;150708.34;5069873;28;20809;-74
2022/12/13 12:02:20;;;;;;;10.10;6.20;;;;;;;-2.64;75.36;150700.66;5053637;28;20509;-74
2022/12/13 12:05:17;;;;;;;14.77;6.43;;;;;;;-2.51;73.43;150733.94;5070943;28;20498;-73
2022/12/13 12:08:06;;;;;;;8.70;5.80;;;;;;;-2.55;74.36;150723.72;5053164;28;20489;-74
2022/12/13 12:10:58;;;;;;;9.77;5.40;;;;;;;-2.52;73.35;150730.13;5053707;28;20504;-74
2022/12/13 12:13:46;;;;;;;11.27;6.27;;;;;;;-2.46;73.37;150745.44;5057804;28;20485;-74
2022/12/13 12:16:37;;;;;;;9.20;5.50;;;;;;;-2.47;72.63;150744.19;5053873;28;20913;-74
2022/12/13 12:19:25;;;;;;;8.70;4.47;;;;;;;-2.43;73.09;150753.13;5053206;28;20905;-72
2022/12/13 12:22:18;;;;;;;8.77;5.40;;;;;;;-2.54;71.59;150726.25;5057862;28;20796;-73
2022/12/13 12:25:23;;;;;;;9.23;6.00;;;;;;;-2.52;71.93;150730.13;5053073;28;20474;-73
2022/12/13 12:28:14;;;;;;;7.77;5.40;;;;;;;-2.46;71.23;150746.72;5069579;28;20444;-73
2022/12/13 12:31:06;;;;;;;9.20;6.27;;;;;;;-2.40;72.05;150759.53;5070898;28;20453;-73
2022/12/13 12:33:58;;;;;;;8.23;5.07;;;;;;;-2.46;70.61;150745.44;5053578;28;20438;-73
2022/12/13 12:36:52;;;;;;;5.93;3.70;;;;;;;-2.38;69.86;150764.69;5083228;28;20520;-72
2022/12/13 12:39:57;;;;;;;9.03;6.30;;;;;;;-2.41;70.83;150757.00;5067518;28;20422;-73
2022/12/13 12:42:50;;;;;;;8.23;4.93;;;;;;;-2.33;70.87;150777.50;5061617;28;20918;-72
2022/12/13 12:45:45;;;;;;;9.37;5.03;;;;;;;-2.30;69.68;150785.19;5071477;28;20832;-73
2022/12/13 12:48:51;;;;;;;8.87;5.90;;;;;;;-2.40;69.32;150760.81;5072151;28;20413;-72
2022/12/13 12:51:45;;;;;;;7.93;5.20;;;;;;;-2.38;70.82;150764.69;5052702;28;21001;-72